Terminal Aerodrome Forecast
Issued by NWS

Home | Current Version | Previous Version | Text Only | Print | Product List | Glossary On
Versions: 1 2 3 4 5 6 7 8 9 10 11 12 13 14 15 16 17 18 19 20 21 22 23 24 25 26
000
FTUS45 KGJT 280520
TAFTEX
TAF
KTEX 280520Z 2806/2906 15012G20KT P6SM BKN080 BKN120
     FM280700 13004KT P6SM SCT150
     FM281500 21005KT P6SM VCSH SCT100 BKN150
     FM282100 15004KT P6SM VCTS SCT080CB BKN120
     FM290100 VRB03KT P6SM -SHRA OVC100=

USA.gov is the U.S. government's official web portal to all federal, state and local government web resources and services.